Potsdam, NY

7:34 PM EST on December 18, 2014 (GMT -0500)
ERC, Clarkson Campus | Change Station
CLOSE
Current Station
Personal Weather Station
Location: Potsdam, NY
Elevation: 479 ft
Nearby Weather Stations

Elev 479 ft 44.66 °N, 75.00 °W | Updated 58 seconds ago

Overcast
Overcast
25.7 °F
Feels Like 26 °F
N
2.0
Wind Variable Wind from SW
Gusts 8.0 mph

Today
High -- | Low -- °F
--% Chance of Precip.
Yesterday
High -- | Low -- °F
Precip. -- in
7:31 AM 4:20 PM
Waning Crescent, 11% visible
Pressure 30.02 in
Visibility 10.0 miles
Clouds Overcast 1400 ft
Windchill 26 °F
Dew Point 24 °F
Humidity 91%
Rainfall 0.04 in
Snow Depth Not available.
UV 0.0 out of 12
Pollen .10 out of 12
Air Quality Not available.
Flu Activity Not available.
METAR KMSS 182353Z AUTO 27007KT 10SM OVC014 M03/M06 A3000 RMK AO2 SLP165 T10281056 11011 21028 51009

More Conditions Fewer Conditions

Pressure 30.02 in
Visibility 10.0 miles
Clouds Overcast 1400 ft
Windchill 26 °F
Dew Point 24 °F
Humidity 91%
Rainfall 0.04 in
Snow Depth Not available.
UV 0.0 out of 12
Pollen .10 out of 12
Air Quality Not available.
Flu Activity Not available.
METAR KMSS 182353Z AUTO 27007KT 10SM OVC014 M03/M06 A3000 RMK AO2 SLP165 T10281056 11011 21028 51009

More Conditions Fewer Conditions

10-Day Weather Forecast

Almanac

Astronomy

Dec. 18, 2014 Rise Set
Actual Time
Civil Twilight
Nautical Twilight
Astronomical Twilight
Moon
Length of Visible Light
Length of Day
Tomorrow will be .
, % of the Moon is Illuminated

Today's Extremes

State Highs State Lows

Community

WunderPhotos

Upload Photos

1,779,016 photos uploaded!

WunderBlogs® & News

Nearby

Air Quality

  Air Quality AQ Index Pollutant
Not available.

Snow Depth

Station Depth Elevation

Earthquake Activity

City Distance Mag. Time & Date
Minimum magnitude displayed is 2.5.

Coastal Water Temperatures

Place Temperature

Nearby Weather Stations